Time,TemperatureF,DewpointF,PressureIn,WindDirection,WindDirectionDegrees,WindSpeedMPH,WindSpeedGustMPH,Humidity,HourlyPrecipIn,Conditions,Clouds,dailyrainin,SoftwareType,DateUTC
2013-02-20 00:01:00,19.0,6.0,-100.00,South,180,1.0,4.0,54,-99.99,,,-99.99,,2013-02-20 07:01:00,
2013-02-20 00:11:00,19.0,6.0,-100.00,South,180,1.0,4.0,54,-99.99,,,-99.99,,2013-02-20 07:11:00,
2013-02-20 00:21:00,20.0,5.0,-100.00,South,170,0.0,3.0,52,-99.99,,,-99.99,,2013-02-20 07:21:00,
2013-02-20 00:31:00,20.0,5.0,-100.00,South,170,0.0,3.0,52,-99.99,,,-99.99,,2013-02-20 07:31:00,
2013-02-20 00:41:00,21.0,5.0,-100.00,SSE,165,3.0,4.0,50,-99.99,,,-99.99,,2013-02-20 07:41:00,
2013-02-20 00:52:00,21.0,5.0,-100.00,SSE,165,3.0,4.0,50,-99.99,,,-99.99,,2013-02-20 07:52:00,
2013-02-20 01:05:00,22.0,6.0,-100.00,SSE,155,2.0,5.0,48,-99.99,,,-99.99,,2013-02-20 08:05:00,
2013-02-20 01:11:00,22.0,6.0,-100.00,SSE,155,2.0,5.0,48,-99.99,,,-99.99,,2013-02-20 08:11:00,
2013-02-20 01:21:00,22.0,6.0,-100.00,SSE,150,3.0,4.0,47,-99.99,,,-99.99,,2013-02-20 08:21:00,
2013-02-20 01:31:00,22.0,6.0,-100.00,SSE,150,3.0,4.0,47,-99.99,,,-99.99,,2013-02-20 08:31:00,
2013-02-20 01:41:00,21.0,5.0,-100.00,SSE,155,4.0,4.0,48,-99.99,,,-99.99,,2013-02-20 08:41:00,
2013-02-20 01:52:00,21.0,5.0,-100.00,SSE,155,4.0,4.0,48,-99.99,,,-99.99,,2013-02-20 08:52:00,
2013-02-20 02:01:00,20.0,5.0,-100.00,SSE,160,4.0,6.0,50,-99.99,,,-99.99,,2013-02-20 09:01:00,
2013-02-20 02:11:00,20.0,5.0,-100.00,SSE,160,4.0,6.0,50,-99.99,,,-99.99,,2013-02-20 09:11:00,
2013-02-20 02:21:00,19.0,5.0,-100.00,South,170,6.0,7.0,52,-99.99,,,-99.99,,2013-02-20 09:21:00,
2013-02-20 02:31:00,19.0,5.0,-100.00,South,170,6.0,7.0,52,-99.99,,,-99.99,,2013-02-20 09:31:00,
2013-02-20 02:42:00,19.0,5.0,-100.00,South,175,4.0,7.0,54,-99.99,,,-99.99,,2013-02-20 09:42:00,
2013-02-20 02:52:00,19.0,5.0,-100.00,South,175,4.0,7.0,54,-99.99,,,-99.99,,2013-02-20 09:52:00,
2013-02-20 03:01:00,19.0,6.0,-100.00,South,180,4.0,6.0,55,-99.99,,,-99.99,,2013-02-20 10:01:00,
2013-02-20 03:12:00,19.0,6.0,-100.00,South,180,4.0,6.0,55,-99.99,,,-99.99,,2013-02-20 10:12:00,
2013-02-20 03:22:00,19.0,6.0,-100.00,South,185,3.0,6.0,56,-99.99,,,-99.99,,2013-02-20 10:22:00,
2013-02-20 03:32:00,19.0,6.0,-100.00,South,185,3.0,6.0,56,-99.99,,,-99.99,,2013-02-20 10:32:00,
2013-02-20 03:42:00,19.0,6.0,-100.00,South,185,2.0,4.0,56,-99.99,,,-99.99,,2013-02-20 10:42:00,
2013-02-20 03:52:00,19.0,6.0,-100.00,South,185,2.0,4.0,56,-99.99,,,-99.99,,2013-02-20 10:52:00,
2013-02-20 04:02:00,19.0,5.0,-100.00,South,180,1.0,3.0,54,-99.99,,,-99.99,,2013-02-20 11:02:00,
2013-02-20 04:11:00,19.0,5.0,-100.00,South,180,1.0,3.0,54,-99.99,,,-99.99,,2013-02-20 11:11:00,
2013-02-20 04:21:00,22.0,7.0,-100.00,SSE,165,3.0,5.0,50,-99.99,,,-99.99,,2013-02-20 11:21:00,
2013-02-20 04:32:00,22.0,7.0,-100.00,SSE,165,3.0,5.0,50,-99.99,,,-99.99,,2013-02-20 11:32:00,
2013-02-20 04:42:00,22.0,6.0,-100.00,SSE,155,1.0,3.0,49,-99.99,,,-99.99,,2013-02-20 11:42:00,
2013-02-20 04:52:00,22.0,6.0,-100.00,SSE,155,1.0,3.0,49,-99.99,,,-99.99,,2013-02-20 11:52:00,
2013-02-20 05:01:00,22.0,5.0,-100.00,SSE,155,2.0,3.0,49,-99.99,,,-99.99,,2013-02-20 12:01:00,
2013-02-20 05:12:00,22.0,5.0,-100.00,SSE,155,2.0,3.0,49,-99.99,,,-99.99,,2013-02-20 12:12:00,
2013-02-20 05:21:00,22.0,6.0,-100.00,SSE,155,4.0,-999.0,48,-99.99,,,-99.99,,2013-02-20 12:21:00,
2013-02-20 05:32:00,22.0,6.0,-100.00,SSE,155,4.0,-999.0,48,-99.99,,,-99.99,,2013-02-20 12:32:00,
2013-02-20 05:42:00,22.0,5.0,-100.00,SSE,150,2.0,2.0,46,-99.99,,,-99.99,,2013-02-20 12:42:00,
2013-02-20 05:53:00,22.0,5.0,-100.00,SSE,150,2.0,2.0,46,-99.99,,,-99.99,,2013-02-20 12:53:00,
2013-02-20 06:01:00,21.0,4.0,-100.00,SSE,150,1.0,2.0,47,-99.99,,,-99.99,,2013-02-20 13:01:00,
2013-02-20 06:11:00,21.0,4.0,-100.00,SSE,150,1.0,2.0,47,-99.99,,,-99.99,,2013-02-20 13:11:00,
2013-02-20 06:22:00,21.0,5.0,-100.00,North,-999,-999.0,-999.0,49,-99.99,,,-99.99,,2013-02-20 13:22:00,
2013-02-20 06:31:00,21.0,5.0,-100.00,North,-999,-999.0,-999.0,49,-99.99,,,-99.99,,2013-02-20 13:31:00,
2013-02-20 06:42:00,23.0,6.0,-100.00,North,-999,-999.0,-999.0,46,-99.99,,,-99.99,,2013-02-20 13:42:00,
2013-02-20 06:52:00,23.0,6.0,-100.00,North,-999,-999.0,-999.0,46,-99.99,,,-99.99,,2013-02-20 13:52:00,
2013-02-20 07:01:00,24.0,6.0,-100.00,SE,140,2.0,2.0,45,-99.99,,,-99.99,,2013-02-20 14:01:00,
2013-02-20 07:11:00,24.0,6.0,-100.00,SE,140,2.0,2.0,45,-99.99,,,-99.99,,2013-02-20 14:11:00,
2013-02-20 07:21:00,23.0,5.0,-100.00,SE,140,2.0,4.0,45,-99.99,,,-99.99,,2013-02-20 14:21:00,
2013-02-20 07:32:00,23.0,5.0,-100.00,SE,140,2.0,4.0,45,-99.99,,,-99.99,,2013-02-20 14:32:00,
2013-02-20 07:42:00,23.0,6.0,-100.00,SE,145,4.0,6.0,46,-99.99,,,-99.99,,2013-02-20 14:42:00,
2013-02-20 07:52:00,23.0,6.0,-100.00,SE,145,4.0,6.0,46,-99.99,,,-99.99,,2013-02-20 14:52:00,
2013-02-20 08:01:00,23.0,6.0,-100.00,SSE,150,6.0,9.0,47,-99.99,,,-99.99,,2013-02-20 15:01:00,
2013-02-20 08:11:00,23.0,6.0,-100.00,SSE,150,6.0,9.0,47,-99.99,,,-99.99,,2013-02-20 15:11:00,
2013-02-20 08:22:00,24.0,6.0,-100.00,SSE,150,5.0,8.0,47,-99.99,,,-99.99,,2013-02-20 15:22:00,
2013-02-20 08:32:00,24.0,6.0,-100.00,SSE,150,5.0,8.0,47,-99.99,,,-99.99,,2013-02-20 15:32:00,
2013-02-20 08:42:00,25.0,7.0,-100.00,SE,145,4.0,10.0,46,-99.99,,,-99.99,,2013-02-20 15:42:00,
2013-02-20 09:01:00,26.0,8.0,-100.00,SE,140,4.0,7.0,45,-99.99,,,-99.99,,2013-02-20 16:01:00,
2013-02-20 09:21:00,27.0,9.0,-100.00,SE,140,3.0,6.0,45,-99.99,,,-99.99,,2013-02-20 16:21:00,
2013-02-20 09:32:00,27.0,9.0,-100.00,SE,140,3.0,6.0,45,-99.99,,,-99.99,,2013-02-20 16:32:00,
2013-02-20 09:42:00,29.0,10.0,-100.00,SE,135,4.0,6.0,44,-99.99,,,-99.99,,2013-02-20 16:42:00,
2013-02-20 10:01:00,30.0,10.0,-100.00,SE,130,3.0,6.0,42,-99.99,,,-99.99,,2013-02-20 17:01:00,
2013-02-20 10:21:00,33.0,11.0,-100.00,ESE,120,2.0,6.0,39,-99.99,,,-99.99,,2013-02-20 17:21:00,
2013-02-20 10:32:00,33.0,11.0,-100.00,ESE,120,2.0,6.0,39,-99.99,,,-99.99,,2013-02-20 17:32:00,
2013-02-20 10:42:00,33.0,10.0,-100.00,ESE,115,4.0,8.0,38,-99.99,,,-99.99,,2013-02-20 17:42:00,
2013-02-20 10:52:00,33.0,10.0,-100.00,ESE,115,4.0,8.0,38,-99.99,,,-99.99,,2013-02-20 17:52:00,
2013-02-20 11:02:00,33.0,11.0,-100.00,ESE,120,2.0,9.0,40,-99.99,,,-99.99,,2013-02-20 18:02:00,
2013-02-20 11:11:00,33.0,11.0,-100.00,ESE,120,2.0,9.0,40,-99.99,,,-99.99,,2013-02-20 18:11:00,
2013-02-20 11:21:00,34.0,12.0,-100.00,ESE,120,3.0,9.0,39,-99.99,,,-99.99,,2013-02-20 18:21:00,
2013-02-20 11:32:00,34.0,12.0,-100.00,ESE,120,3.0,9.0,39,-99.99,,,-99.99,,2013-02-20 18:32:00,
2013-02-20 11:42:00,32.0,10.0,-100.00,ESE,120,6.0,9.0,39,-99.99,,,-99.99,,2013-02-20 18:42:00,
2013-02-20 11:52:00,32.0,10.0,-100.00,ESE,120,6.0,9.0,39,-99.99,,,-99.99,,2013-02-20 18:52:00,
2013-02-20 12:01:00,32.0,10.0,-100.00,ESE,120,3.0,7.0,40,-99.99,,,-99.99,,2013-02-20 19:01:00,
2013-02-20 12:11:00,32.0,10.0,-100.00,ESE,120,3.0,7.0,40,-99.99,,,-99.99,,2013-02-20 19:11:00,
2013-02-20 12:21:00,32.0,11.0,-100.00,ESE,120,3.0,10.0,40,-99.99,,,-99.99,,2013-02-20 19:21:00,
2013-02-20 12:31:00,32.0,11.0,-100.00,ESE,120,3.0,10.0,40,-99.99,,,-99.99,,2013-02-20 19:31:00,
2013-02-20 12:41:00,31.0,9.0,-100.00,ESE,120,7.0,10.0,40,-99.99,,,-99.99,,2013-02-20 19:41:00,
2013-02-20 12:52:00,31.0,9.0,-100.00,ESE,120,7.0,10.0,40,-99.99,,,-99.99,,2013-02-20 19:52:00,
2013-02-20 13:01:00,30.0,11.0,-100.00,SE,135,2.0,9.0,43,-99.99,,,-99.99,,2013-02-20 20:01:00,
2013-02-20 13:11:00,30.0,11.0,-100.00,SE,135,2.0,9.0,43,-99.99,,,-99.99,,2013-02-20 20:11:00,
2013-02-20 13:21:00,29.0,11.0,-100.00,SE,145,4.0,9.0,45,-99.99,,,-99.99,,2013-02-20 20:21:00,
2013-02-20 13:31:00,29.0,11.0,-100.00,SE,145,4.0,9.0,45,-99.99,,,-99.99,,2013-02-20 20:31:00,
2013-02-20 13:41:00,31.0,12.0,-100.00,SE,145,4.0,8.0,45,-99.99,,,-99.99,,2013-02-20 20:41:00,
2013-02-20 13:52:00,31.0,12.0,-100.00,SE,145,4.0,8.0,45,-99.99,,,-99.99,,2013-02-20 20:52:00,
2013-02-20 14:01:00,30.0,11.0,-100.00,SE,135,2.0,7.0,43,-99.99,,,-99.99,,2013-02-20 21:01:00,
2013-02-20 14:11:00,30.0,11.0,-100.00,SE,135,2.0,7.0,43,-99.99,,,-99.99,,2013-02-20 21:11:00,
2013-02-20 14:21:00,29.0,10.0,-100.00,SE,135,4.0,9.0,43,-99.99,,,-99.99,,2013-02-20 21:21:00,
2013-02-20 14:31:00,29.0,10.0,-100.00,SE,135,4.0,9.0,43,-99.99,,,-99.99,,2013-02-20 21:31:00,
2013-02-20 14:42:00,31.0,11.0,-100.00,SE,135,4.0,8.0,43,-99.99,,,-99.99,,2013-02-20 21:42:00,
2013-02-20 14:52:00,31.0,11.0,-100.00,SE,135,4.0,8.0,43,-99.99,,,-99.99,,2013-02-20 21:52:00,
2013-02-20 15:01:00,31.0,11.0,-100.00,SE,135,4.0,7.0,43,-99.99,,,-99.99,,2013-02-20 22:01:00,
2013-02-20 15:11:00,31.0,11.0,-100.00,SE,135,4.0,7.0,43,-99.99,,,-99.99,,2013-02-20 22:11:00,
2013-02-20 15:21:00,28.0,10.0,-100.00,SE,145,5.0,7.0,46,-99.99,,,-99.99,,2013-02-20 22:21:00,
2013-02-20 15:31:00,28.0,10.0,-100.00,SE,145,5.0,7.0,46,-99.99,,,-99.99,,2013-02-20 22:31:00,
2013-02-20 15:52:00,27.0,11.0,-100.00,SSE,160,3.0,6.0,50,-99.99,,,-99.99,,2013-02-20 22:52:00,
2013-02-20 16:01:00,26.0,11.0,-100.00,South,175,1.0,6.0,53,-99.99,,,-99.99,,2013-02-20 23:01:00,
2013-02-20 16:12:00,26.0,11.0,-100.00,South,175,1.0,6.0,53,-99.99,,,-99.99,,2013-02-20 23:12:00,
2013-02-20 16:22:00,25.0,11.0,-100.00,South,185,2.0,6.0,56,-99.99,,,-99.99,,2013-02-20 23:22:00,
2013-02-20 16:32:00,25.0,11.0,-100.00,South,185,2.0,6.0,56,-99.99,,,-99.99,,2013-02-20 23:32:00,
2013-02-20 16:42:00,25.0,11.0,-100.00,South,185,2.0,6.0,56,-99.99,,,-99.99,,2013-02-20 23:42:00,
2013-02-20 16:52:00,25.0,11.0,-100.00,South,185,2.0,6.0,56,-99.99,,,-99.99,,2013-02-20 23:52:00,
2013-02-20 17:02:00,21.0,11.0,-100.00,SW,215,3.0,8.0,63,-99.99,,,-99.99,,2013-02-21 00:02:00,
2013-02-20 17:11:00,21.0,11.0,-100.00,SW,215,3.0,8.0,63,-99.99,,,-99.99,,2013-02-21 00:11:00,
2013-02-20 17:21:00,19.0,10.0,-100.00,SW,230,4.0,-999.0,67,-99.99,,,-99.99,,2013-02-21 00:21:00,
2013-02-20 17:32:00,19.0,10.0,-100.00,SW,230,4.0,-999.0,67,-99.99,,,-99.99,,2013-02-21 00:32:00,
2013-02-20 17:42:00,18.0,11.0,-100.00,WSW,255,2.0,6.0,73,-99.99,,,-99.99,,2013-02-21 00:42:00,
2013-02-20 17:52:00,18.0,11.0,-100.00,WSW,255,2.0,6.0,73,-99.99,,,-99.99,,2013-02-21 00:52:00,
2013-02-20 18:01:00,17.0,12.0,-100.00,West,275,1.0,5.0,79,-99.99,,,-99.99,,2013-02-21 01:01:00,
2013-02-20 18:11:00,17.0,12.0,-100.00,West,275,1.0,5.0,79,-99.99,,,-99.99,,2013-02-21 01:11:00,
2013-02-20 18:21:00,17.0,13.0,-100.00,North,-999,-999.0,-999.0,83,-99.99,,,-99.99,,2013-02-21 01:21:00,
2013-02-20 18:32:00,17.0,13.0,-100.00,North,-999,-999.0,-999.0,83,-99.99,,,-99.99,,2013-02-21 01:32:00,
2013-02-20 18:42:00,17.0,13.0,-100.00,North,-999,-999.0,-999.0,83,-99.99,,,-99.99,,2013-02-21 01:42:00,
2013-02-20 18:52:00,17.0,13.0,-100.00,North,-999,-999.0,-999.0,83,-99.99,,,-99.99,,2013-02-21 01:52:00,
2013-02-20 19:01:00,17.0,14.0,-100.00,NW,315,2.0,4.0,88,-99.99,,,-99.99,,2013-02-21 02:01:00,
2013-02-20 19:11:00,17.0,14.0,-100.00,NW,315,2.0,4.0,88,-99.99,,,-99.99,,2013-02-21 02:11:00,
2013-02-20 19:21:00,16.0,13.0,-100.00,NW,320,2.0,4.0,90,-99.99,,,-99.99,,2013-02-21 02:21:00,
2013-02-20 19:32:00,16.0,13.0,-100.00,NW,320,2.0,4.0,90,-99.99,,,-99.99,,2013-02-21 02:32:00,
2013-02-20 19:42:00,16.0,13.0,-100.00,NW,320,2.0,4.0,90,-99.99,,,-99.99,,2013-02-21 02:42:00,
2013-02-20 19:52:00,16.0,13.0,-100.00,NW,320,2.0,4.0,90,-99.99,,,-99.99,,2013-02-21 02:52:00,
2013-02-20 20:01:00,15.0,13.0,-100.00,NW,325,2.0,3.0,91,-99.99,,,-99.99,,2013-02-21 03:01:00,
2013-02-20 20:12:00,15.0,13.0,-100.00,NW,325,2.0,3.0,91,-99.99,,,-99.99,,2013-02-21 03:12:00,
2013-02-20 20:21:00,15.0,13.0,-100.00,NNW,330,0.0,-999.0,91,-99.99,,,-99.99,,2013-02-21 03:21:00,
2013-02-20 20:32:00,15.0,13.0,-100.00,NNW,330,0.0,-999.0,91,-99.99,,,-99.99,,2013-02-21 03:32:00,
2013-02-20 20:42:00,15.0,13.0,-100.00,NNW,330,1.0,-999.0,92,-99.99,,,-99.99,,2013-02-21 03:42:00,
2013-02-20 20:52:00,15.0,13.0,-100.00,NNW,330,1.0,-999.0,92,-99.99,,,-99.99,,2013-02-21 03:52:00,
2013-02-20 21:01:00,15.0,13.0,-100.00,NNW,330,1.0,-999.0,92,-99.99,,,-99.99,,2013-02-21 04:01:00,
2013-02-20 21:11:00,15.0,13.0,-100.00,NNW,330,1.0,-999.0,92,-99.99,,,-99.99,,2013-02-21 04:11:00,
2013-02-20 21:21:00,14.0,12.0,-100.00,NNW,335,0.0,1.0,93,-99.99,,,-99.99,,2013-02-21 04:21:00,
2013-02-20 21:32:00,14.0,12.0,-100.00,NNW,335,0.0,1.0,93,-99.99,,,-99.99,,2013-02-21 04:32:00,
2013-02-20 21:42:00,13.0,12.0,-100.00,NNW,335,0.0,1.0,93,-99.99,,,-99.99,,2013-02-21 04:42:00,
2013-02-20 21:52:00,13.0,12.0,-100.00,NNW,335,0.0,1.0,93,-99.99,,,-99.99,,2013-02-21 04:52:00,
2013-02-20 22:02:00,13.0,11.0,-100.00,NNW,335,0.0,1.0,93,-99.99,,,-99.99,,2013-02-21 05:02:00,
2013-02-20 22:12:00,13.0,11.0,-100.00,NNW,335,0.0,1.0,93,-99.99,,,-99.99,,2013-02-21 05:12:00,
2013-02-20 22:22:00,13.0,11.0,-100.00,NNW,335,0.0,-999.0,93,-99.99,,,-99.99,,2013-02-21 05:22:00,
2013-02-20 22:34:00,13.0,11.0,-100.00,NNW,335,0.0,-999.0,93,-99.99,,,-99.99,,2013-02-21 05:34:00,
2013-02-20 22:44:00,12.0,11.0,-100.00,NNW,335,1.0,1.0,93,-99.99,,,-99.99,,2013-02-21 05:44:00,
2013-02-20 23:00:00,12.0,11.0,-100.00,NNW,335,1.0,1.0,93,-99.99,,,-99.99,,2013-02-21 06:00:00,
2013-02-20 23:11:00,12.0,11.0,-100.00,NNW,335,0.0,2.0,93,-99.99,,,-99.99,,2013-02-21 06:11:00,
2013-02-20 23:21:00,12.0,11.0,-100.00,NNW,335,0.0,0.0,93,-99.99,,,-99.99,,2013-02-21 06:21:00,
2013-02-20 23:31:00,12.0,11.0,-100.00,NNW,335,0.0,0.0,93,-99.99,,,-99.99,,2013-02-21 06:31:00,
2013-02-20 23:41:00,13.0,11.0,-100.00,NNW,335,1.0,2.0,93,-99.99,,,-99.99,,2013-02-21 06:41:00,
2013-02-20 23:51:00,13.0,11.0,-100.00,NNW,335,1.0,2.0,93,-99.99,,,-99.99,,2013-02-21 06:51:00,